This is the latest recevied weather packets stored in our database for station/object MEGLR. If no packets are shown the sender has not sent any weather packets the latest 10 day(s).
| Time | Temp. | Humidity | Pressure | Rain* | Wind** | Luminosity | Snow |
|---|---|---|---|---|---|---|---|
| 1777488603 | 11.11° C | 76% | 0 hPa | - | - | - | - |
| 1777488003 | 10.56° C | 73% | 0 hPa | - | - | - | - |
| 1777487403 | 10.56° C | 71% | 0 hPa | - | - | - | - |
| 1777486803 | 10° C | 71% | 0 hPa | - | - | - | - |
| 1777486203 | 10° C | 69% | 0 hPa | - | - | - | - |
| 1777485603 | 10.56° C | 70% | 0 hPa | - | - | - | - |
| 1777485003 | 11.11° C | 68% | 0 hPa | - | - | - | - |
| 1777484403 | 12.22° C | 63% | 0 hPa | - | - | - | - |
| 1777483803 | 11.11° C | 66% | 0 hPa | - | - | - | - |
| 1777483203 | 10.56° C | 68% | 0 hPa | - | - | - | - |
| 1777482602 | 10° C | 69% | 0 hPa | - | - | - | - |
| 1777482003 | 9.44° C | 75% | 0 hPa | - | - | - | - |
| 1777481403 | 10° C | 73% | 0 hPa | - | - | - | - |
| 1777480803 | 8.89° C | 76% | 0 hPa | - | - | - | - |
| 1777480203 | 8.33° C | 80% | 0 hPa | - | - | - | - |
| 1777479603 | 8.33° C | 82% | 0 hPa | - | - | - | - |
| 1777479002 | 8.33° C | 82% | 0 hPa | - | - | - | - |
| 1777478404 | 7.78° C | 87% | 0 hPa | - | - | - | - |
| 1777477803 | 7.78° C | 90% | 0 hPa | - | - | - | - |
| 1777477203 | 7.78° C | 87% | 0 hPa | - | - | - | - |
| 1777476603 | 7.22° C | 93% | 0 hPa | - | - | - | - |
| 1777476003 | 6.67° C | 97% | 0 hPa | - | - | - | - |
| 1777475404 | 6.11° C | 99% | 0 hPa | - | - | - | - |
| 1777474803 | 6.11° C | 99% | 0 hPa | - | - | - | - |
| 1777474203 | 6.67° C | 99% | 0 hPa | - | - | - | - |
* Rain since midnight (hover to see other rain measurements)
** Current wind speed in m/s (hover to see current wind gust speed)